Main page
METAR-TAF:

METAR-TAF

Airports :

Brighton City Airport (Shoreham Airport)

Brighton, England

latitude: 50-50N, longitude: 000-17W, elevation: 2 m

Current weather observation

The report was made 15 minutes ago, at 08:50 UTC
Wind 5 kt from the Southeast
Temperature 18°C
Humidity 77%
Pressure 1028 hPa
Visibility 10 km or more
Few clouds at a height of 1700 ft

METAR: EGKA 210850Z 13005KT 9999 FEW017 18/14 Q1028

Time: 10:05 (09:05 UTC)

Forecast

The report was made 1 hour and 1 minutes ago, at 08:04 UTC
Forecast valid from 21 at 09 UTC to 21 at 18 UTC
Wind 6 kt from the South/Southwest
Visibility 10 km or more
Few clouds at a height of 2500 ft

TAF: EGKA 210804Z 2109/2118 21006KT 9999 FEW025

Weather observations and forecasts of more than 4000 airports (METAR and TAF reports).

The available stations are represented by yellow and red dots on the map.

Hover mouse over dot to see the name of the station.

Then click to see weather observations and forecasts.

To change the map : click on the green buttons with a black cross to zoom in, on the green button with a dash to zoom out, or on the green arrows for adjacent maps.


METAR-TAF: